Latest Weather Observations for Mount Crawford

IDS60901

Issued at 4:11 am CDT Thursday 2 April 2015 (issued every 10 minutes, with the page automatically refreshed every 10 minutes)

About weather observations | Map of Adelaide area stations | Latest observations for Adelaide area | Other Formats
Station Details ID: 023878 Name: MT CRAWFORD AWS Lat: -34.73 Lon: 138.93 Height: 525.0 m
Data from the previous 72 hours. | See also: Recent months at Mount Crawford
Date/Time
CDT
Tmp

°C
App
Tmp
°C
Dew
Point
°C
Rel
Hum
%
Delta-T

°C
Wind Press
QNH
hPa
Press
MSL
hPa
Rain
since
9 am
mm
Dir
 
Spd
km/h
Gust
km/h
Spd
kts
Gust
kts
02/04:00am 10.0 4.3 9.9 99 0.1 SE 30 41 16 22 1020.3 1019.4 0.2
02/03:30am 10.4 3.9 10.2 99 0.1 SSE 35 48 19 26 1020.3 1019.4 0.2
02/03:00am 11.1 6.1 10.9 99 0.1 SSE 28 43 15 23 1020.2 1019.3 0.2
02/02:30am 11.4 5.9 10.5 94 0.5 SSE 30 48 16 26 1020.1 1019.2 0.2
02/02:00am 11.3 5.5 10.8 97 0.3 SSE 32 50 17 27 1020.3 1019.4 0.2
02/01:59am 11.3 5.5 10.8 97 0.3 SSE 32 50 17 27 1020.3 1019.4 0.2
02/01:30am 11.1 4.8 10.9 99 0.1 SSE 35 46 19 25 1020.1 1019.2 0.2
02/01:17am 11.3 5.4 11.1 99 0.1 SE 33 52 18 28 1020.1 1019.2 0.2
02/01:00am 11.8 6.6 11.6 99 0.1 SSE 30 44 16 24 1020.1 1019.2 0.2
02/12:36am 12.3 7.3 12.1 99 0.1 SSE 30 48 16 26 1020.0 1019.1 0.2
02/12:30am 12.4 6.8 12.2 99 0.1 SSE 33 48 18 26 1019.8 1018.8 0.2
02/12:00am 12.8 7.5 12.6 99 0.1 SSE 32 46 17 25 1019.8 1018.8 0.2
 
Date/Time
CDT
Tmp

°C
App
Tmp
°C
Dew
Point
°C
Rel
Hum
%
Delta-T

°C
Wind Press
QNH
hPa
Press
MSL
hPa
Rain
since
9 am
mm
Dir
 
Spd
km/h
Gust
km/h
Spd
kts
Gust
kts
01/11:30pm 13.5 8.5 13.3 99 0.1 SSE 32 43 17 23 1019.8 1018.8 0.2
01/11:00pm 14.3 11.4 14.1 99 0.1 S 22 32 12 17 1019.8 1018.8 0.2
01/10:30pm 15.3 12.8 15.1 99 0.1 S 22 33 12 18 1019.4 1018.4 0.2
01/10:00pm 15.6 14.5 15.4 99 0.1 SSW 15 22 8 12 1019.3 1018.3 0.2
01/09:30pm 15.6 13.8 15.4 99 0.1 SW 19 28 10 15 1018.6 1017.7 0.2
01/09:00pm 15.7 13.7 15.5 99 0.1 WSW 20 32 11 17 1018.2 1017.2 0.2
01/08:30pm 15.9 13.9 14.9 94 0.6 WSW 19 28 10 15 1017.9 1016.9 0.0
01/08:00pm 17.1 15.2 14.2 83 1.7 WSW 17 28 9 15 1017.5 1016.5 0.0
01/07:30pm 17.6 15.5 13.7 78 2.3 WSW 17 26 9 14 1017.2 1016.2 0.0
01/07:00pm 18.5 16.2 13.1 71 3.1 WSW 17 28 9 15 1016.8 1015.9 0.0
01/06:30pm 18.9 15.6 12.9 68 3.5 WSW 22 35 12 19 1016.5 1015.5 0.0
01/06:00pm 19.3 16.4 13.0 67 3.6 WSW 20 33 11 18 1016.5 1015.5 0.0
01/05:30pm 20.2 17.5 12.9 63 4.2 WSW 19 26 10 14 1016.0 1015.0 0.0
01/05:00pm 21.7 17.1 11.1 51 6.0 WSW 26 39 14 21 1015.8 1014.8 0.0
01/04:30pm 23.6 19.2 10.3 43 7.5 W 24 37 13 20 1015.7 1014.7 0.0
01/04:00pm 25.5 19.2 8.9 35 9.2 W 32 52 17 28 1015.2 1014.2 0.0
01/03:55pm 24.9 18.5 9.2 37 8.7 W 33 52 18 28 1015.1 1014.1 0.0
01/03:30pm 24.9 18.7 8.0 34 9.2 W 30 43 16 23 1015.3 1014.3 0.0
01/03:02pm 25.1 18.4 5.8 29 10.1 W 30 48 16 26 1015.6 1014.6 0.0
01/03:00pm 25.3 18.2 5.5 28 10.4 W 32 48 17 26 1015.7 1014.7 0.0
01/02:30pm 24.9 16.1 3.5 25 10.8 W 39 59 21 32 1015.6 1014.6 0.0
01/02:03pm 25.9 17.3 2.6 22 11.6 WNW 37 57 20 31 1015.7 1014.7 0.0
01/02:00pm 25.9 17.3 2.6 22 11.6 WNW 37 50 20 27 1015.9 1014.9 0.0
01/01:30pm 26.3 18.0 2.3 21 11.9 WNW 35 54 19 29 1016.0 1015.0 0.0
01/01:28pm 26.9 18.6 2.1 20 12.3 WNW 35 54 19 29 1016.3 1015.3 0.0
01/01:13pm 26.7 18.4 1.9 20 12.3 WNW 35 54 19 29 1016.3 1015.3 0.0
01/01:00pm 26.5 17.8 1.7 20 12.2 NW 37 57 20 31 1016.5 1015.5 0.0
01/12:34pm 26.6 18.8 1.8 20 12.2 NW 32 50 17 27 1016.8 1015.9 0.0
01/12:30pm 26.9 19.2 2.1 20 12.3 NW 32 48 17 26 1017.1 1016.1 0.0
01/12:09pm 26.4 19.4 1.7 20 12.2 NNW 28 46 15 25 1017.1 1016.1 0.0
01/12:00pm 26.3 19.2 1.6 20 12.1 NNW 28 44 15 24 1017.3 1016.3 0.0
01/11:33am 25.5 17.6 0.9 20 11.9 NNW 32 50 17 27 1017.3 1016.3 0.0
01/11:30am 25.1 17.0 1.3 21 11.5 NNW 33 50 18 27 1017.3 1016.3 0.0
01/11:00am 25.1 18.0 1.3 21 11.5 N 28 41 15 22 1017.6 1016.6 0.0
01/10:30am 23.4 16.6 1.1 23 10.6 N 26 33 14 18 1017.9 1016.9 0.0
01/10:00am 22.5 15.3 0.9 24 10.2 N 28 46 15 25 1017.8 1016.2 0.0
01/09:59am 22.5 15.3 0.9 24 10.2 N 28 46 15 25 1017.8 1016.2 0.0
01/09:30am 22.1 14.9 0.6 24 10.0 N 28 39 15 21 1017.9 1016.3 0.0
01/09:07am 22.2 14.5 0.1 23 10.2 N 30 48 16 26 1017.8 1016.2 0.0
01/09:00am 22.3 14.3 0.2 23 10.3 N 32 43 17 23 1017.7 1016.1 0.0
01/08:30am 22.5 14.8 -0.3 22 10.5 N 30 41 16 22 1017.7 1016.1 0.0
01/08:00am 22.6 14.8 -0.8 21 10.7 N 30 43 16 23 1017.7 1016.1 0.0
01/07:30am 22.4 15.1 -0.3 22 10.4 N 28 43 15 23 1018.0 1016.4 0.0
01/07:00am 22.5 15.9 -0.3 22 10.5 N 24 35 13 19 1017.9 1016.3 0.0
01/06:30am 22.7 16.1 -0.1 22 10.6 N 24 35 13 19 1017.7 1016.1 0.0
01/06:00am 22.0 14.9 1.1 25 9.8 NNE 28 35 15 19 1017.6 1016.0 0.0
01/05:30am 22.4 15.2 0.9 24 10.1 NNE 28 35 15 19 1017.6 1016.0 0.0
01/05:00am 22.6 15.1 1.0 24 10.2 NNE 30 39 16 21 1017.8 1016.2 0.0
01/04:30am 22.7 15.6 1.1 24 10.2 N 28 37 15 20 1018.1 1016.5 0.0
01/04:00am 22.7 15.6 1.1 24 10.2 N 28 37 15 20 1018.4 1016.8 0.0
01/03:30am 22.3 15.8 2.4 27 9.6 NNE 26 33 14 18 1018.7 1017.1 0.0
01/03:00am 22.4 16.3 2.5 27 9.6 NNE 24 32 13 17 1019.2 1017.6 0.0
01/02:30am 22.0 16.6 2.7 28 9.4 NNE 20 30 11 16 1019.6 1018.0 0.0
01/02:00am 22.0 16.0 3.2 29 9.2 NNE 24 32 13 17 1020.0 1018.4 0.0
01/01:30am 22.1 16.5 3.7 30 9.1 NNE 22 32 12 17 1020.4 1018.8 0.0
01/01:00am 21.7 16.3 4.3 32 8.7 NE 22 30 12 16 1020.5 1019.0 0.0
01/12:30am 21.1 15.7 4.6 34 8.2 NE 22 26 12 14 1020.6 1019.1 0.0
01/12:00am 21.2 16.3 4.3 33 8.4 NE 19 24 10 13 1020.8 1019.3 0.0
 
Date/Time
CDT
Tmp

°C
App
Tmp
°C
Dew
Point
°C
Rel
Hum
%
Delta-T

°C
Wind Press
QNH
hPa
Press
MSL
hPa
Rain
since
9 am
mm
Dir
 
Spd
km/h
Gust
km/h
Spd
kts
Gust
kts
31/11:30pm 21.6 17.1 4.2 32 8.7 NE 17 22 9 12 1021.4 1019.8 0.0
31/11:00pm 21.3 16.2 4.0 32 8.6 NE 20 26 11 14 1021.3 1019.7 0.0
31/10:30pm 20.9 15.6 3.2 31 8.6 NE 20 24 11 13 1021.3 1019.7 0.0
31/10:00pm 21.4 15.7 2.6 29 9.1 ENE 22 26 12 14 1021.2 1019.6 0.0
31/09:30pm 21.6 15.8 2.3 28 9.3 ENE 22 28 12 15 1021.2 1019.6 0.0
31/09:00pm 21.9 16.1 2.1 27 9.5 ENE 22 26 12 14 1021.2 1019.6 0.0
31/08:30pm 22.4 16.9 2.0 26 9.8 ENE 20 28 11 15 1021.2 1019.6 0.0
31/08:00pm 22.7 17.4 2.8 27 9.7 ENE 20 24 11 13 1021.3 1019.7 0.0
31/07:30pm 23.3 18.5 2.7 26 10.1 ENE 17 20 9 11 1021.5 1019.9 0.0
31/07:00pm 24.0 19.6 2.8 25 10.5 NE 15 20 8 11 1021.3 1019.7 0.0
31/06:30pm 24.9 21.3 3.0 24 10.9 NE 11 15 6 8 1021.4 1019.8 0.0
31/06:00pm 26.1 22.1 2.7 22 11.7 NNE 13 19 7 10 1021.0 1019.5 0.0
31/05:30pm 26.4 23.0 1.7 20 12.1 N 9 15 5 8 1020.8 1019.3 0.0
31/05:00pm 26.7 22.2 1.9 20 12.3 NE 15 22 8 12 1021.0 1019.5 0.0
31/04:30pm 26.5 22.9 3.1 22 11.8 NNW 11 19 6 10 1021.3 1019.7 0.0
31/04:00pm 26.3 22.1 1.6 20 12.1 N 13 20 7 11 1021.5 1019.9 0.0
31/03:30pm 26.5 23.0 1.0 19 12.4 NW 9 19 5 10 1021.8 1020.2 0.0
31/03:00pm 26.7 22.9 1.9 20 12.2 NNE 11 17 6 9 1022.0 1020.4 0.0
31/02:30pm 25.7 20.8 1.8 21 11.7 N 17 28 9 15 1022.4 1020.9 0.0
31/02:00pm 25.8 21.8 4.9 26 10.9 N 15 26 8 14 1022.9 1021.4 0.0
31/01:30pm 24.6 20.9 4.4 27 10.3 N 13 24 7 13 1023.4 1021.8 0.0
31/01:00pm 25.0 21.7 4.7 27 10.5 NE 11 20 6 11 1023.7 1022.1 0.0
31/12:30pm 24.6 20.7 5.4 29 9.9 NNE 15 22 8 12 1024.3 1022.8 0.0
31/12:00pm 23.6 19.4 5.5 31 9.3 NNE 17 24 9 13 1024.5 1023.0 0.0
31/11:30am 23.1 18.5 6.4 34 8.7 NNE 20 28 11 15 1024.6 1023.1 0.0
31/11:00am 22.2 17.3 6.8 37 8.1 ENE 22 32 12 17 1024.9 1023.4 0.0
31/10:30am 20.9 16.1 7.5 42 7.0 ENE 22 30 12 16 1025.3 1023.7 0.0
31/10:00am 19.6 15.3 7.7 46 6.3 NE 20 28 11 15 1025.4 1023.8 0.0
31/09:30am 18.1 14.1 8.9 55 4.9 ENE 20 28 11 15 1025.4 1023.8 0.0
31/09:00am 16.7 12.7 8.9 60 4.1 ENE 20 28 11 15 1025.3 1023.7 0.0
31/08:30am 15.5 11.6 9.4 67 3.2 ENE 20 30 11 16 1025.2 1023.6 0.0
31/08:00am 14.3 10.5 9.7 74 2.4 E 20 26 11 14 1025.2 1023.6 0.0
31/07:30am 13.6 9.1 10.0 79 1.9 ENE 24 32 13 17 1024.8 1023.3 0.0
31/07:00am 13.6 10.0 10.0 79 1.9 E 19 24 10 13 1025.0 1023.5 0.0
31/06:30am 13.7 10.0 10.3 80 1.8 E 20 30 11 16 1024.7 1023.2 0.0
31/06:00am 13.0 9.4 10.5 85 1.3 E 20 24 11 13 1024.4 1022.9 0.0
31/05:30am 13.1 9.3 9.9 81 1.7 E 20 24 11 13 1024.4 1022.9 0.0
31/05:00am 13.3 9.8 10.1 81 1.7 ESE 19 24 10 13 1024.3 1022.8 0.0
31/04:30am 13.5 9.7 9.7 78 2.0 E 20 24 11 13 1024.3 1022.8 0.0
31/04:00am 13.5 9.8 9.6 77 2.1 E 19 24 10 13 1024.4 1022.9 0.0
31/03:30am 13.8 10.0 9.8 77 2.1 E 20 22 11 12 1024.6 1023.1 0.0
31/03:00am 13.7 10.0 10.1 79 1.9 E 20 26 11 14 1024.7 1023.2 0.0
31/02:30am 13.3 9.9 10.5 83 1.5 ESE 19 22 10 12 1024.8 1023.3 0.0
31/02:00am 13.6 10.0 10.6 82 1.6 ESE 20 26 11 14 1025.2 1023.6 0.0
31/01:30am 13.7 9.7 10.5 81 1.7 ESE 22 24 12 13 1025.2 1023.6 0.0
31/01:00am 13.6 10.2 10.4 81 1.7 E 19 22 10 12 1025.3 1023.7 0.0
31/12:30am 13.7 10.1 10.5 81 1.7 ESE 20 28 11 15 1025.2 1023.6 0.0
31/12:00am 13.9 9.5 10.5 80 1.8 ESE 24 28 13 15 1025.4 1023.8 0.0
 
Date/Time
CDT
Tmp

°C
App
Tmp
°C
Dew
Point
°C
Rel
Hum
%
Delta-T

°C
Wind Press
QNH
hPa
Press
MSL
hPa
Rain
since
9 am
mm
Dir
 
Spd
km/h
Gust
km/h
Spd
kts
Gust
kts
30/11:30pm 14.2 9.9 10.6 79 1.9 ESE 24 30 13 16 1025.8 1024.3 0.0
30/11:00pm 14.4 10.1 10.6 78 2.1 SE 24 32 13 17 1025.8 1024.3 0.0
30/10:30pm 14.7 10.3 10.5 76 2.3 SE 24 32 13 17 1025.9 1024.4 0.0
30/10:00pm 15.2 10.8 10.4 73 2.6 SE 24 32 13 17 1025.9 1024.4 0.0
30/09:30pm 15.6 11.1 10.2 70 2.9 SE 24 32 13 17 1025.8 1024.3 0.0
30/09:00pm 16.3 12.5 9.7 65 3.5 SE 20 28 11 15 1025.7 1024.2 0.0
30/08:30pm 17.1 13.2 9.3 60 4.2 SE 20 28 11 15 1025.4 1023.8 0.0
30/08:00pm 17.8 13.7 8.6 55 4.9 ESE 20 30 11 16 1025.2 1023.6 0.0
30/07:30pm 18.8 14.6 7.6 48 5.8 ESE 19 28 10 15 1024.9 1023.4 0.0
30/07:00pm 19.9 15.7 7.6 45 6.5 ESE 19 28 10 15 1024.6 1023.1 0.0
30/06:30pm 21.3 17.7 8.2 43 7.0 ESE 17 22 9 12 1024.4 1022.9 0.0
30/06:00pm 22.9 20.5 8.6 40 7.8 ENE 11 19 6 10 1024.2 1022.7 0.0
30/05:30pm 23.6 21.5 11.0 45 7.2 WSW 13 20 7 11 1024.0 1022.5 0.0
30/05:00pm 24.1 21.8 10.4 42 7.8 WSW 13 19 7 10 1023.9 1022.4 0.0
30/04:30pm 24.2 21.6 7.8 35 8.8 NW 11 19 6 10 1023.7 1022.1 0.0
30/04:00pm 25.0 21.7 8.1 34 9.2 WNW 15 22 8 12 1023.7 1022.1 0.0
30/03:30pm 25.0 22.6 8.5 35 9.0 WNW 11 20 6 11 1023.9 1022.4 0.0
30/03:00pm 23.2 20.7 8.1 38 8.1 SW 11 19 6 10 1024.1 1022.6 0.0
30/02:30pm 22.6 20.4 8.0 39 7.8 W 9 17 5 9 1024.3 1022.8 0.0
30/02:00pm 22.3 19.4 8.1 40 7.6 SSW 13 20 7 11 1024.6 1023.1 0.0
30/01:30pm 22.9 20.0 8.2 39 7.9 W 13 20 7 11 1024.9 1023.4 0.0
30/01:00pm 22.5 20.6 9.0 42 7.4 NNW 9 17 5 9 1025.2 1023.6 0.0
30/12:30pm 22.0 20.3 9.9 46 6.7 N 9 15 5 8 1025.6 1024.1 0.0
30/12:00pm 20.3 18.2 9.8 51 5.7 NNW 11 19 6 10 1025.7 1024.2 0.0
30/11:30am 20.0 18.3 9.9 52 5.5 NNE 9 17 5 9 1026.0 1024.5 0.0
30/11:00am 20.1 18.9 10.2 53 5.5 NE 7 13 4 7 1026.2 1024.7 0.0
30/10:30am 18.4 16.8 10.3 59 4.4 ENE 9 13 5 7 1026.2 1024.7 0.0
30/10:00am 17.7 15.9 11.0 65 3.7 ENE 11 15 6 8 1026.1 1024.6 0.0
30/09:30am 15.8 13.7 11.2 74 2.5 E 13 17 7 9 1026.0 1024.5 0.0
30/09:00am 14.8 12.7 11.2 79 2.0 E 13 17 7 9 1025.7 1024.2 0.0
30/08:30am 13.9 11.9 11.6 86 1.3 E 13 17 7 9 1025.3 1023.7 0.0
30/08:00am 13.2 11.2 11.6 90 0.9 E 13 17 7 9 1025.0 1023.5 0.0
30/07:30am 12.6 11.0 11.7 94 0.5 ENE 11 13 6 7 1024.6 1023.1 0.0
30/07:00am 11.9 10.3 11.4 97 0.3 E 11 13 6 7 1024.3 1022.8 0.0
30/06:30am 12.2 10.1 11.3 94 0.5 ESE 13 13 7 7 1023.8 1022.2 0.0
30/06:00am 13.1 11.6 10.5 84 1.4 ESE 9 11 5 6 1023.5 1021.9 0.0
30/05:30am 13.4 11.9 9.1 75 2.2 ESE 7 9 4 5 1023.5 1021.9 0.0
30/05:00am 12.5 10.9 11.4 93 0.6 ESE 11 13 6 7 1023.4 1021.8 0.0
30/04:30am 12.6 10.4 10.8 89 1.0 ESE 13 13 7 7 1023.4 1021.8 0.0

Latest Capital City Observations: Canberra | Sydney | Melbourne | Brisbane | Adelaide | Perth | Hobart | Darwin

Other Formats:

Comma delimited format used in spreadsheet applications
http://www.bom.gov.au/fwo/IDS60901/IDS60901.94678.axf

JavaScript Object Notation format (JSON) in row-major order
http://www.bom.gov.au/fwo/IDS60901/IDS60901.94678.json